sensor_id;sensor_type;location;lat;lon;timestamp;temperature;humidity
68378;DHT22;55322;48.146;11.516;2022-09-09T00:01:56;15.59;79.49
68378;DHT22;55322;48.146;11.516;2022-09-09T00:04:29;15.59;79.70
68378;DHT22;55322;48.146;11.516;2022-09-09T00:12:43;15.20;82.76
68378;DHT22;55322;48.146;11.516;2022-09-09T00:15:19;15.08;82.92
68378;DHT22;55322;48.146;11.516;2022-09-09T00:20:35;14.95;83.96
68378;DHT22;55322;48.146;11.516;2022-09-09T00:23:34;14.95;84.30
68378;DHT22;55322;48.146;11.516;2022-09-09T00:28:41;14.97;84.50
68378;DHT22;55322;48.146;11.516;2022-09-09T00:31:29;15.04;85.07
68378;DHT22;55322;48.146;11.516;2022-09-09T00:34:02;14.98;84.70
68378;DHT22;55322;48.146;11.516;2022-09-09T00:36:28;14.97;84.13
68378;DHT22;55322;48.146;11.516;2022-09-09T00:38:58;15.00;84.89
68378;DHT22;55322;48.146;11.516;2022-09-09T00:44:28;15.00;84.46
68378;DHT22;55322;48.146;11.516;2022-09-09T00:52:39;15.18;83.49
68378;DHT22;55322;48.146;11.516;2022-09-09T00:55:16;15.20;83.25
68378;DHT22;55322;48.146;11.516;2022-09-09T00:57:44;15.23;81.64
68378;DHT22;55322;48.146;11.516;2022-09-09T01:08:21;15.35;80.71
68378;DHT22;55322;48.146;11.516;2022-09-09T01:10:51;15.34;80.69
68378;DHT22;55322;48.146;11.516;2022-09-09T01:13:33;15.36;81.05
68378;DHT22;55322;48.146;11.516;2022-09-09T01:16:00;15.35;81.39
68378;DHT22;55322;48.146;11.516;2022-09-09T01:18:36;15.39;81.40
68378;DHT22;55322;48.146;11.516;2022-09-09T01:21:09;15.39;80.59
68378;DHT22;55322;48.146;11.516;2022-09-09T01:26:41;15.39;80.45
68378;DHT22;55322;48.146;11.516;2022-09-09T01:29:09;15.39;80.66
68378;DHT22;55322;48.146;11.516;2022-09-09T01:31:38;15.42;80.90
68378;DHT22;55322;48.146;11.516;2022-09-09T01:34:13;15.41;81.00
68378;DHT22;55322;48.146;11.516;2022-09-09T01:36:46;15.41;81.38
68378;DHT22;55322;48.146;11.516;2022-09-09T01:39:13;15.36;81.35
68378;DHT22;55322;48.146;11.516;2022-09-09T01:41:38;15.35;81.17
68378;DHT22;55322;48.146;11.516;2022-09-09T01:44:05;15.32;81.23
68378;DHT22;55322;48.146;11.516;2022-09-09T01:46:31;15.30;81.37
68378;DHT22;55322;48.146;11.516;2022-09-09T01:48:57;15.18;81.69
68378;DHT22;55322;48.146;11.516;2022-09-09T01:51:23;15.08;82.17
68378;DHT22;55322;48.146;11.516;2022-09-09T01:53:49;14.95;82.85
68378;DHT22;55322;48.146;11.516;2022-09-09T01:56:41;14.93;83.81
68378;DHT22;55322;48.146;11.516;2022-09-09T02:01:58;14.94;84.06
68378;DHT22;55322;48.146;11.516;2022-09-09T02:04:38;14.95;83.15
68378;DHT22;55322;48.146;11.516;2022-09-09T02:07:08;14.97;82.50
68378;DHT22;55322;48.146;11.516;2022-09-09T02:09:36;14.85;84.55
68378;DHT22;55322;48.146;11.516;2022-09-09T02:12:16;14.81;84.94
68378;DHT22;55322;48.146;11.516;2022-09-09T02:14:50;14.74;84.76
68378;DHT22;55322;48.146;11.516;2022-09-09T02:17:29;14.71;85.18
68378;DHT22;55322;48.146;11.516;2022-09-09T02:20:03;14.73;84.47
68378;DHT22;55322;48.146;11.516;2022-09-09T02:22:32;14.69;85.37
68378;DHT22;55322;48.146;11.516;2022-09-09T02:25:00;14.74;84.42
68378;DHT22;55322;48.146;11.516;2022-09-09T02:27:27;14.79;83.99
68378;DHT22;55322;48.146;11.516;2022-09-09T02:29:54;14.85;83.72
68378;DHT22;55322;48.146;11.516;2022-09-09T02:32:23;14.95;82.83
68378;DHT22;55322;48.146;11.516;2022-09-09T02:34:58;15.03;82.63
68378;DHT22;55322;48.146;11.516;2022-09-09T02:37:29;15.05;83.05
68378;DHT22;55322;48.146;11.516;2022-09-09T02:39:56;15.11;83.47
68378;DHT22;55322;48.146;11.516;2022-09-09T02:42:22;15.15;82.86
68378;DHT22;55322;48.146;11.516;2022-09-09T02:44:49;15.21;82.55
68378;DHT22;55322;48.146;11.516;2022-09-09T02:47:33;15.21;82.31
68378;DHT22;55322;48.146;11.516;2022-09-09T02:55:24;15.31;81.93
68378;DHT22;55322;48.146;11.516;2022-09-09T02:57:53;15.30;82.29
68378;DHT22;55322;48.146;11.516;2022-09-09T03:00:26;15.31;82.11
68378;DHT22;55322;48.146;11.516;2022-09-09T03:02:52;15.30;82.68
68378;DHT22;55322;48.146;11.516;2022-09-09T03:05:19;15.23;82.96
68378;DHT22;55322;48.146;11.516;2022-09-09T03:07:45;15.17;83.69
68378;DHT22;55322;48.146;11.516;2022-09-09T03:10:10;15.17;83.09
68378;DHT22;55322;48.146;11.516;2022-09-09T03:12:35;15.17;82.71
68378;DHT22;55322;48.146;11.516;2022-09-09T03:15:02;15.17;83.42
68378;DHT22;55322;48.146;11.516;2022-09-09T03:17:27;15.15;82.97
68378;DHT22;55322;48.146;11.516;2022-09-09T03:19:53;15.15;82.74
68378;DHT22;55322;48.146;11.516;2022-09-09T03:22:19;15.15;82.79
68378;DHT22;55322;48.146;11.516;2022-09-09T03:24:46;15.15;83.22
68378;DHT22;55322;48.146;11.516;2022-09-09T03:27:12;15.08;83.53
68378;DHT22;55322;48.146;11.516;2022-09-09T03:29:39;15.03;84.11
68378;DHT22;55322;48.146;11.516;2022-09-09T03:32:04;14.95;83.85
68378;DHT22;55322;48.146;11.516;2022-09-09T03:34:30;14.83;85.25
68378;DHT22;55322;48.146;11.516;2022-09-09T03:36:55;14.84;85.51
68378;DHT22;55322;48.146;11.516;2022-09-09T03:39:21;14.81;85.27
68378;DHT22;55322;48.146;11.516;2022-09-09T03:41:46;14.84;85.38
68378;DHT22;55322;48.146;11.516;2022-09-09T03:44:13;14.76;85.30
68378;DHT22;55322;48.146;11.516;2022-09-09T03:46:39;14.83;84.70
68378;DHT22;55322;48.146;11.516;2022-09-09T03:49:05;14.85;85.05
68378;DHT22;55322;48.146;11.516;2022-09-09T03:51:30;14.90;84.59
68378;DHT22;55322;48.146;11.516;2022-09-09T03:53:55;14.94;84.64
68378;DHT22;55322;48.146;11.516;2022-09-09T03:56:23;14.98;84.09
68378;DHT22;55322;48.146;11.516;2022-09-09T03:58:48;15.04;84.04
68378;DHT22;55322;48.146;11.516;2022-09-09T04:01:14;15.11;83.43
68378;DHT22;55322;48.146;11.516;2022-09-09T04:03:40;15.17;83.27
68378;DHT22;55322;48.146;11.516;2022-09-09T04:06:06;15.18;83.29
68378;DHT22;55322;48.146;11.516;2022-09-09T04:08:33;15.23;83.62
68378;DHT22;55322;48.146;11.516;2022-09-09T04:11:01;15.24;83.23
68378;DHT22;55322;48.146;11.516;2022-09-09T04:13:34;15.23;83.96
68378;DHT22;55322;48.146;11.516;2022-09-09T04:16:01;15.25;83.32
68378;DHT22;55322;48.146;11.516;2022-09-09T04:18:28;15.25;83.12
68378;DHT22;55322;48.146;11.516;2022-09-09T04:20:54;15.25;83.34
68378;DHT22;55322;48.146;11.516;2022-09-09T04:23:22;15.28;83.25
68378;DHT22;55322;48.146;11.516;2022-09-09T04:25:51;15.25;83.16
68378;DHT22;55322;48.146;11.516;2022-09-09T04:28:18;15.25;83.56
68378;DHT22;55322;48.146;11.516;2022-09-09T04:30:44;15.23;83.21
68378;DHT22;55322;48.146;11.516;2022-09-09T04:33:10;15.14;83.36
68378;DHT22;55322;48.146;11.516;2022-09-09T04:35:36;15.08;83.86
68378;DHT22;55322;48.146;11.516;2022-09-09T04:38:02;15.01;84.28
68378;DHT22;55322;48.146;11.516;2022-09-09T04:40:29;14.93;84.83
68378;DHT22;55322;48.146;11.516;2022-09-09T04:42:55;14.85;85.02
68378;DHT22;55322;48.146;11.516;2022-09-09T04:45:22;14.79;85.50
68378;DHT22;55322;48.146;11.516;2022-09-09T04:47:47;14.71;85.94
68378;DHT22;55322;48.146;11.516;2022-09-09T04:50:14;14.66;86.33
68378;DHT22;55322;48.146;11.516;2022-09-09T04:52:39;14.66;85.56
68378;DHT22;55322;48.146;11.516;2022-09-09T04:55:06;14.64;86.26
68378;DHT22;55322;48.146;11.516;2022-09-09T04:57:32;14.60;86.05
68378;DHT22;55322;48.146;11.516;2022-09-09T04:59:58;14.61;86.37
68378;DHT22;55322;48.146;11.516;2022-09-09T05:02:25;14.53;87.12
68378;DHT22;55322;48.146;11.516;2022-09-09T05:04:51;14.53;87.28
68378;DHT22;55322;48.146;11.516;2022-09-09T05:07:16;14.61;86.38
68378;DHT22;55322;48.146;11.516;2022-09-09T05:09:41;14.66;85.60
68378;DHT22;55322;48.146;11.516;2022-09-09T05:12:06;14.64;87.10
68378;DHT22;55322;48.146;11.516;2022-09-09T05:14:33;14.52;87.12
68378;DHT22;55322;48.146;11.516;2022-09-09T05:16:58;14.53;87.21
68378;DHT22;55322;48.146;11.516;2022-09-09T05:19:24;14.55;85.86
68378;DHT22;55322;48.146;11.516;2022-09-09T05:21:49;14.59;86.36
68378;DHT22;55322;48.146;11.516;2022-09-09T05:24:15;14.71;85.66
68378;DHT22;55322;48.146;11.516;2022-09-09T05:26:40;14.74;85.38
68378;DHT22;55322;48.146;11.516;2022-09-09T05:29:06;14.76;85.27
68378;DHT22;55322;48.146;11.516;2022-09-09T05:31:31;14.77;84.62
68378;DHT22;55322;48.146;11.516;2022-09-09T05:33:58;14.84;84.51
68378;DHT22;55322;48.146;11.516;2022-09-09T05:36:24;14.88;85.43
68378;DHT22;55322;48.146;11.516;2022-09-09T05:38:49;14.93;85.09
68378;DHT22;55322;48.146;11.516;2022-09-09T05:41:16;14.94;85.18
68378;DHT22;55322;48.146;11.516;2022-09-09T05:43:43;14.98;84.67
68378;DHT22;55322;48.146;11.516;2022-09-09T05:46:14;15.03;84.15
68378;DHT22;55322;48.146;11.516;2022-09-09T05:48:41;15.10;83.63
68378;DHT22;55322;48.146;11.516;2022-09-09T05:51:09;15.14;83.88
68378;DHT22;55322;48.146;11.516;2022-09-09T05:53:36;15.14;83.69
68378;DHT22;55322;48.146;11.516;2022-09-09T05:56:07;15.17;84.95
68378;DHT22;55322;48.146;11.516;2022-09-09T05:58:36;15.05;85.65
68378;DHT22;55322;48.146;11.516;2022-09-09T06:01:07;15.04;86.29
68378;DHT22;55322;48.146;11.516;2022-09-09T06:03:34;15.08;86.41
68378;DHT22;55322;48.146;11.516;2022-09-09T06:06:02;15.14;84.27
68378;DHT22;55322;48.146;11.516;2022-09-09T06:08:30;15.27;82.86
68378;DHT22;55322;48.146;11.516;2022-09-09T06:11:01;15.34;82.58
68378;DHT22;55322;48.146;11.516;2022-09-09T06:13:27;15.44;81.80
68378;DHT22;55322;48.146;11.516;2022-09-09T06:15:53;15.54;81.59
68378;DHT22;55322;48.146;11.516;2022-09-09T06:18:18;15.59;81.44
68378;DHT22;55322;48.146;11.516;2022-09-09T06:21:02;15.70;81.26
68378;DHT22;55322;48.146;11.516;2022-09-09T06:23:30;15.75;80.98
68378;DHT22;55322;48.146;11.516;2022-09-09T06:28:36;15.78;80.33
68378;DHT22;55322;48.146;11.516;2022-09-09T06:31:04;15.79;80.46
68378;DHT22;55322;48.146;11.516;2022-09-09T06:33:35;15.78;79.76
68378;DHT22;55322;48.146;11.516;2022-09-09T06:36:02;15.78;79.89
68378;DHT22;55322;48.146;11.516;2022-09-09T06:38:28;15.78;80.53
68378;DHT22;55322;48.146;11.516;2022-09-09T06:40:55;15.79;80.10
68378;DHT22;55322;48.146;11.516;2022-09-09T06:43:22;15.82;80.63
68378;DHT22;55322;48.146;11.516;2022-09-09T06:45:59;15.86;79.94
68378;DHT22;55322;48.146;11.516;2022-09-09T06:48:25;15.85;81.40
68378;DHT22;55322;48.146;11.516;2022-09-09T06:51:04;15.96;81.09
68378;DHT22;55322;48.146;11.516;2022-09-09T06:53:30;16.06;79.72
68378;DHT22;55322;48.146;11.516;2022-09-09T06:55:58;16.09;80.05
68378;DHT22;55322;48.146;11.516;2022-09-09T06:58:24;16.14;79.94
68378;DHT22;55322;48.146;11.516;2022-09-09T07:00:49;16.16;80.14
68378;DHT22;55322;48.146;11.516;2022-09-09T07:03:14;16.17;79.49
68378;DHT22;55322;48.146;11.516;2022-09-09T07:05:40;16.13;79.56
68378;DHT22;55322;48.146;11.516;2022-09-09T07:08:05;16.17;80.44
68378;DHT22;55322;48.146;11.516;2022-09-09T07:10:31;16.19;81.05
68378;DHT22;55322;48.146;11.516;2022-09-09T07:12:56;16.20;80.47
68378;DHT22;55322;48.146;11.516;2022-09-09T07:15:22;16.16;80.48
68378;DHT22;55322;48.146;11.516;2022-09-09T07:17:48;16.20;81.66
68378;DHT22;55322;48.146;11.516;2022-09-09T07:20:14;16.13;82.40
68378;DHT22;55322;48.146;11.516;2022-09-09T07:22:40;16.09;83.24
68378;DHT22;55322;48.146;11.516;2022-09-09T07:25:05;16.08;84.11
68378;DHT22;55322;48.146;11.516;2022-09-09T07:27:31;16.06;85.08
68378;DHT22;55322;48.146;11.516;2022-09-09T07:29:56;16.10;85.11
68378;DHT22;55322;48.146;11.516;2022-09-09T07:32:22;16.19;84.01
68378;DHT22;55322;48.146;11.516;2022-09-09T07:34:48;16.27;83.86
68378;DHT22;55322;48.146;11.516;2022-09-09T07:37:15;16.46;83.56
68378;DHT22;55322;48.146;11.516;2022-09-09T07:39:41;16.67;81.51
68378;DHT22;55322;48.146;11.516;2022-09-09T07:42:07;16.87;80.59
68378;DHT22;55322;48.146;11.516;2022-09-09T07:44:34;16.95;80.98
68378;DHT22;55322;48.146;11.516;2022-09-09T07:47:02;17.04;80.57
68378;DHT22;55322;48.146;11.516;2022-09-09T07:49:27;17.03;79.99
68378;DHT22;55322;48.146;11.516;2022-09-09T07:51:53;17.07;80.65
68378;DHT22;55322;48.146;11.516;2022-09-09T07:54:19;17.05;81.45
68378;DHT22;55322;48.146;11.516;2022-09-09T07:56:46;17.07;80.56
68378;DHT22;55322;48.146;11.516;2022-09-09T07:59:12;17.07;80.58
68378;DHT22;55322;48.146;11.516;2022-09-09T08:01:46;17.14;79.83
68378;DHT22;55322;48.146;11.516;2022-09-09T08:04:17;17.15;79.68
68378;DHT22;55322;48.146;11.516;2022-09-09T08:06:47;17.16;78.81
68378;DHT22;55322;48.146;11.516;2022-09-09T08:09:14;17.25;80.14
68378;DHT22;55322;48.146;11.516;2022-09-09T08:11:40;17.38;80.22
68378;DHT22;55322;48.146;11.516;2022-09-09T08:14:06;17.46;80.44
68378;DHT22;55322;48.146;11.516;2022-09-09T08:16:40;17.55;78.73
68378;DHT22;55322;48.146;11.516;2022-09-09T08:19:06;17.53;78.80
68378;DHT22;55322;48.146;11.516;2022-09-09T08:21:33;17.62;78.93
68378;DHT22;55322;48.146;11.516;2022-09-09T08:24:00;17.59;78.24
68378;DHT22;55322;48.146;11.516;2022-09-09T08:26:31;17.62;78.05
68378;DHT22;55322;48.146;11.516;2022-09-09T08:28:58;17.70;78.73
68378;DHT22;55322;48.146;11.516;2022-09-09T08:31:35;17.80;78.79
68378;DHT22;55322;48.146;11.516;2022-09-09T08:34:02;17.80;80.17
68378;DHT22;55322;48.146;11.516;2022-09-09T08:36:33;17.79;79.71
68378;DHT22;55322;48.146;11.516;2022-09-09T08:38:59;17.61;79.97
68378;DHT22;55322;48.146;11.516;2022-09-09T08:53:02;17.22;84.03
68378;DHT22;55322;48.146;11.516;2022-09-09T08:55:41;17.21;84.62
68378;DHT22;55322;48.146;11.516;2022-09-09T08:58:12;17.15;84.81
68378;DHT22;55322;48.146;11.516;2022-09-09T09:03:48;17.05;84.79
68378;DHT22;55322;48.146;11.516;2022-09-09T09:11:49;17.18;80.35
68378;DHT22;55322;48.146;11.516;2022-09-09T09:14:23;17.35;77.20
68378;DHT22;55322;48.146;11.516;2022-09-09T09:17:06;17.35;77.27
68378;DHT22;55322;48.146;11.516;2022-09-09T09:19:35;17.36;78.49
68378;DHT22;55322;48.146;11.516;2022-09-09T09:24:55;17.43;79.88
68378;DHT22;55322;48.146;11.516;2022-09-09T09:27:35;17.62;77.74
68378;DHT22;55322;48.146;11.516;2022-09-09T09:30:15;17.72;75.48
68378;DHT22;55322;48.146;11.516;2022-09-09T09:32:44;17.72;75.40
68378;DHT22;55322;48.146;11.516;2022-09-09T09:35:13;17.90;78.07
68378;DHT22;55322;48.146;11.516;2022-09-09T09:37:40;17.96;76.57
68378;DHT22;55322;48.146;11.516;2022-09-09T09:40:10;18.01;76.49
68378;DHT22;55322;48.146;11.516;2022-09-09T09:42:35;18.00;75.14
68378;DHT22;55322;48.146;11.516;2022-09-09T09:45:14;17.94;75.32
68378;DHT22;55322;48.146;11.516;2022-09-09T09:47:41;17.85;73.89
68378;DHT22;55322;48.146;11.516;2022-09-09T09:50:16;17.76;75.69
68378;DHT22;55322;48.146;11.516;2022-09-09T09:52:53;17.75;78.01
68378;DHT22;55322;48.146;11.516;2022-09-09T09:55:20;17.73;75.45
68378;DHT22;55322;48.146;11.516;2022-09-09T09:57:46;17.69;78.01
68378;DHT22;55322;48.146;11.516;2022-09-09T10:02:41;17.52;79.83
68378;DHT22;55322;48.146;11.516;2022-09-09T10:05:25;17.49;78.99
68378;DHT22;55322;48.146;11.516;2022-09-09T10:08:20;17.40;79.07
68378;DHT22;55322;48.146;11.516;2022-09-09T10:17:17;17.39;81.44
68378;DHT22;55322;48.146;11.516;2022-09-09T10:19:32;17.40;80.21
68378;DHT22;55322;48.146;11.516;2022-09-09T10:36:23;17.55;78.61
68378;DHT22;55322;48.146;11.516;2022-09-09T10:41:44;17.87;79.33
68378;DHT22;55322;48.146;11.516;2022-09-09T10:50:09;18.11;76.51
68378;DHT22;55322;48.146;11.516;2022-09-09T10:55:18;18.21;75.83
68378;DHT22;55322;48.146;11.516;2022-09-09T10:57:50;18.40;75.08
68378;DHT22;55322;48.146;11.516;2022-09-09T11:00:22;18.50;74.47
68378;DHT22;55322;48.146;11.516;2022-09-09T11:05:24;19.22;72.41
68378;DHT22;55322;48.146;11.516;2022-09-09T11:07:58;19.53;73.31
68378;DHT22;55322;48.146;11.516;2022-09-09T11:10:39;19.59;69.57
68378;DHT22;55322;48.146;11.516;2022-09-09T11:13:14;19.76;68.36
68378;DHT22;55322;48.146;11.516;2022-09-09T11:15:48;20.61;65.67
68378;DHT22;55322;48.146;11.516;2022-09-09T11:18:20;20.72;64.13
68378;DHT22;55322;48.146;11.516;2022-09-09T11:20:49;20.86;65.26
68378;DHT22;55322;48.146;11.516;2022-09-09T11:23:27;20.85;65.68
68378;DHT22;55322;48.146;11.516;2022-09-09T11:25:57;20.40;63.59
68378;DHT22;55322;48.146;11.516;2022-09-09T11:31:46;20.51;63.57
68378;DHT22;55322;48.146;11.516;2022-09-09T11:34:42;20.55;64.52
68378;DHT22;55322;48.146;11.516;2022-09-09T11:37:34;21.49;63.85
68378;DHT22;55322;48.146;11.516;2022-09-09T11:40:26;21.42;59.34
68378;DHT22;55322;48.146;11.516;2022-09-09T11:43:16;21.36;60.40
68378;DHT22;55322;48.146;11.516;2022-09-09T11:45:50;21.18;59.87
68378;DHT22;55322;48.146;11.516;2022-09-09T11:48:28;20.75;61.61
68378;DHT22;55322;48.146;11.516;2022-09-09T11:51:00;20.34;62.71
68378;DHT22;55322;48.146;11.516;2022-09-09T11:53:25;19.77;63.60
68378;DHT22;55322;48.146;11.516;2022-09-09T11:56:07;19.49;67.02
68378;DHT22;55322;48.146;11.516;2022-09-09T11:58:38;19.26;67.27
68378;DHT22;55322;48.146;11.516;2022-09-09T12:04:01;19.32;67.43
68378;DHT22;55322;48.146;11.516;2022-09-09T12:06:32;19.39;67.88
68378;DHT22;55322;48.146;11.516;2022-09-09T12:12:33;19.30;68.17
68378;DHT22;55322;48.146;11.516;2022-09-09T12:14:59;19.42;68.12
68378;DHT22;55322;48.146;11.516;2022-09-09T12:17:31;19.60;67.87
68378;DHT22;55322;48.146;11.516;2022-09-09T12:28:11;19.96;66.43
68378;DHT22;55322;48.146;11.516;2022-09-09T12:31:18;19.71;66.64
68378;DHT22;55322;48.146;11.516;2022-09-09T12:33:46;19.45;67.88
68378;DHT22;55322;48.146;11.516;2022-09-09T12:36:32;19.45;68.38
68378;DHT22;55322;48.146;11.516;2022-09-09T12:39:10;19.55;68.78
68378;DHT22;55322;48.146;11.516;2022-09-09T12:41:40;19.96;67.11
68378;DHT22;55322;48.146;11.516;2022-09-09T12:44:08;20.11;67.26
68378;DHT22;55322;48.146;11.516;2022-09-09T12:46:40;20.28;66.89
68378;DHT22;55322;48.146;11.516;2022-09-09T12:49:28;20.30;68.29
68378;DHT22;55322;48.146;11.516;2022-09-09T12:51:56;20.00;65.79
68378;DHT22;55322;48.146;11.516;2022-09-09T12:54:22;20.11;66.94
68378;DHT22;55322;48.146;11.516;2022-09-09T12:56:48;20.14;66.95
68378;DHT22;55322;48.146;11.516;2022-09-09T12:59:26;20.01;66.63
68378;DHT22;55322;48.146;11.516;2022-09-09T13:01:58;20.07;67.30
68378;DHT22;55322;48.146;11.516;2022-09-09T13:04:24;19.96;67.37
68378;DHT22;55322;48.146;11.516;2022-09-09T13:06:50;19.89;67.35
68378;DHT22;55322;48.146;11.516;2022-09-09T13:09:17;19.74;68.57
68378;DHT22;55322;48.146;11.516;2022-09-09T13:11:45;19.74;68.73
68378;DHT22;55322;48.146;11.516;2022-09-09T13:14:18;19.79;68.16
68378;DHT22;55322;48.146;11.516;2022-09-09T13:16:55;19.66;68.35
68378;DHT22;55322;48.146;11.516;2022-09-09T13:19:21;19.77;68.51
68378;DHT22;55322;48.146;11.516;2022-09-09T13:21:47;19.86;68.59
68378;DHT22;55322;48.146;11.516;2022-09-09T13:24:34;19.62;68.37
68378;DHT22;55322;48.146;11.516;2022-09-09T13:27:02;19.83;68.19
68378;DHT22;55322;48.146;11.516;2022-09-09T13:29:29;19.71;66.88
68378;DHT22;55322;48.146;11.516;2022-09-09T13:32:03;19.79;68.29
68378;DHT22;55322;48.146;11.516;2022-09-09T13:34:34;20.25;67.97
68378;DHT22;55322;48.146;11.516;2022-09-09T13:37:20;20.40;66.84
68378;DHT22;55322;48.146;11.516;2022-09-09T13:39:51;20.34;64.12
68378;DHT22;55322;48.146;11.516;2022-09-09T13:42:25;20.16;64.27
68378;DHT22;55322;48.146;11.516;2022-09-09T13:44:51;19.94;66.33
68378;DHT22;55322;48.146;11.516;2022-09-09T13:47:21;19.79;66.60
68378;DHT22;55322;48.146;11.516;2022-09-09T13:49:48;19.60;66.66
68378;DHT22;55322;48.146;11.516;2022-09-09T13:52:18;19.50;67.74
68378;DHT22;55322;48.146;11.516;2022-09-09T13:54:48;19.40;67.86
68378;DHT22;55322;48.146;11.516;2022-09-09T13:57:22;19.42;67.57
68378;DHT22;55322;48.146;11.516;2022-09-09T13:59:51;19.28;68.69
68378;DHT22;55322;48.146;11.516;2022-09-09T14:02:17;19.28;69.17
68378;DHT22;55322;48.146;11.516;2022-09-09T14:04:43;19.04;69.36
68378;DHT22;55322;48.146;11.516;2022-09-09T14:07:12;19.09;68.96
68378;DHT22;55322;48.146;11.516;2022-09-09T14:09:39;18.91;68.96
68378;DHT22;55322;48.146;11.516;2022-09-09T14:12:08;18.65;69.96
68378;DHT22;55322;48.146;11.516;2022-09-09T14:14:33;18.50;70.15
68378;DHT22;55322;48.146;11.516;2022-09-09T14:16:59;18.64;70.94
68378;DHT22;55322;48.146;11.516;2022-09-09T14:19:24;18.71;71.00
68378;DHT22;55322;48.146;11.516;2022-09-09T14:21:49;18.76;71.44
68378;DHT22;55322;48.146;11.516;2022-09-09T14:24:15;18.74;70.63
68378;DHT22;55322;48.146;11.516;2022-09-09T14:26:41;18.67;70.30
68378;DHT22;55322;48.146;11.516;2022-09-09T14:29:06;18.64;70.89
68378;DHT22;55322;48.146;11.516;2022-09-09T14:31:32;18.57;70.48
68378;DHT22;55322;48.146;11.516;2022-09-09T14:33:57;18.63;71.18
68378;DHT22;55322;48.146;11.516;2022-09-09T14:36:24;18.61;71.49
68378;DHT22;55322;48.146;11.516;2022-09-09T14:38:49;18.57;70.74
68378;DHT22;55322;48.146;11.516;2022-09-09T14:41:17;18.45;70.73
68378;DHT22;55322;48.146;11.516;2022-09-09T14:43:44;18.43;71.66
68378;DHT22;55322;48.146;11.516;2022-09-09T14:46:11;18.45;71.65
68378;DHT22;55322;48.146;11.516;2022-09-09T14:48:37;18.37;70.90
68378;DHT22;55322;48.146;11.516;2022-09-09T14:51:05;18.29;71.11
68378;DHT22;55322;48.146;11.516;2022-09-09T14:53:31;18.33;71.30
68378;DHT22;55322;48.146;11.516;2022-09-09T14:56:27;18.40;70.84
68378;DHT22;55322;48.146;11.516;2022-09-09T14:58:54;18.43;70.85
68378;DHT22;55322;48.146;11.516;2022-09-09T15:01:20;18.37;69.99
68378;DHT22;55322;48.146;11.516;2022-09-09T15:03:51;18.31;70.65
68378;DHT22;55322;48.146;11.516;2022-09-09T15:06:17;18.34;72.34
68378;DHT22;55322;48.146;11.516;2022-09-09T15:08:44;18.33;70.53
68378;DHT22;55322;48.146;11.516;2022-09-09T15:11:11;18.34;70.32
68378;DHT22;55322;48.146;11.516;2022-09-09T15:13:38;18.29;70.16
68378;DHT22;55322;48.146;11.516;2022-09-09T15:16:12;18.33;70.19
68378;DHT22;55322;48.146;11.516;2022-09-09T15:18:37;18.29;71.17
68378;DHT22;55322;48.146;11.516;2022-09-09T15:21:11;18.38;69.38
68378;DHT22;55322;48.146;11.516;2022-09-09T15:23:37;18.34;69.05
68378;DHT22;55322;48.146;11.516;2022-09-09T15:26:03;18.36;69.99
68378;DHT22;55322;48.146;11.516;2022-09-09T15:28:31;18.41;69.62
68378;DHT22;55322;48.146;11.516;2022-09-09T15:30:56;18.36;69.34
68378;DHT22;55322;48.146;11.516;2022-09-09T15:33:22;18.33;70.05
68378;DHT22;55322;48.146;11.516;2022-09-09T15:35:48;18.44;70.07
68378;DHT22;55322;48.146;11.516;2022-09-09T15:38:15;18.51;69.54
68378;DHT22;55322;48.146;11.516;2022-09-09T15:40:42;18.65;69.13
68378;DHT22;55322;48.146;11.516;2022-09-09T15:43:08;18.89;67.61
68378;DHT22;55322;48.146;11.516;2022-09-09T15:45:35;18.88;66.40
68378;DHT22;55322;48.146;11.516;2022-09-09T15:48:01;19.19;67.39
68378;DHT22;55322;48.146;11.516;2022-09-09T15:50:27;19.12;66.66
68378;DHT22;55322;48.146;11.516;2022-09-09T15:52:53;19.14;65.80
68378;DHT22;55322;48.146;11.516;2022-09-09T15:55:19;19.12;66.28
68378;DHT22;55322;48.146;11.516;2022-09-09T15:57:49;18.81;66.55
68378;DHT22;55322;48.146;11.516;2022-09-09T16:00:14;18.58;66.18
68378;DHT22;55322;48.146;11.516;2022-09-09T16:02:40;18.44;66.90
68378;DHT22;55322;48.146;11.516;2022-09-09T16:05:06;18.40;69.02
68378;DHT22;55322;48.146;11.516;2022-09-09T16:07:31;18.29;69.10
68378;DHT22;55322;48.146;11.516;2022-09-09T16:09:56;18.18;69.34
68378;DHT22;55322;48.146;11.516;2022-09-09T16:12:22;18.27;68.64
68378;DHT22;55322;48.146;11.516;2022-09-09T16:14:47;18.36;68.01
68378;DHT22;55322;48.146;11.516;2022-09-09T16:17:12;18.45;68.26
68378;DHT22;55322;48.146;11.516;2022-09-09T16:19:39;18.63;67.90
68378;DHT22;55322;48.146;11.516;2022-09-09T16:22:04;18.69;66.91
68378;DHT22;55322;48.146;11.516;2022-09-09T16:24:31;18.74;67.39
68378;DHT22;55322;48.146;11.516;2022-09-09T16:26:57;18.88;65.76
68378;DHT22;55322;48.146;11.516;2022-09-09T16:29:22;18.81;63.49
68378;DHT22;55322;48.146;11.516;2022-09-09T16:31:49;18.79;66.25
68378;DHT22;55322;48.146;11.516;2022-09-09T16:34:15;18.61;63.45
68378;DHT22;55322;48.146;11.516;2022-09-09T16:36:43;18.53;64.41
68378;DHT22;55322;48.146;11.516;2022-09-09T16:39:11;18.36;65.26
68378;DHT22;55322;48.146;11.516;2022-09-09T16:41:37;18.33;66.01
68378;DHT22;55322;48.146;11.516;2022-09-09T16:44:05;18.27;65.60
68378;DHT22;55322;48.146;11.516;2022-09-09T16:46:34;18.27;65.25
68378;DHT22;55322;48.146;11.516;2022-09-09T16:49:01;18.20;64.66
68378;DHT22;55322;48.146;11.516;2022-09-09T16:51:29;18.10;65.81
68378;DHT22;55322;48.146;11.516;2022-09-09T16:53:56;17.96;65.76
68378;DHT22;55322;48.146;11.516;2022-09-09T16:56:24;17.89;66.71
68378;DHT22;55322;48.146;11.516;2022-09-09T16:58:58;17.80;66.90
68378;DHT22;55322;48.146;11.516;2022-09-09T17:01:29;17.69;68.18
68378;DHT22;55322;48.146;11.516;2022-09-09T17:04:00;17.65;68.03
68378;DHT22;55322;48.146;11.516;2022-09-09T17:06:26;17.59;68.24
68378;DHT22;55322;48.146;11.516;2022-09-09T17:08:56;17.48;69.21
68378;DHT22;55322;48.146;11.516;2022-09-09T17:11:23;17.40;68.96
68378;DHT22;55322;48.146;11.516;2022-09-09T17:13:49;17.40;69.69
68378;DHT22;55322;48.146;11.516;2022-09-09T17:16:16;17.39;70.20
68378;DHT22;55322;48.146;11.516;2022-09-09T17:18:42;17.28;70.76
68378;DHT22;55322;48.146;11.516;2022-09-09T17:21:10;17.18;71.31
68378;DHT22;55322;48.146;11.516;2022-09-09T17:23:37;17.08;71.98
68378;DHT22;55322;48.146;11.516;2022-09-09T17:26:04;17.03;72.22
68378;DHT22;55322;48.146;11.516;2022-09-09T17:28:30;16.98;72.19